CheckWX is a tool to help pilots better visualize weather data.  It is not intended as a substitute for an official pre-flight weather briefing.

12:45:19 UTC

EGPN METAR
Dundee Airport
Dundee, United Kingdom
Current

25 mins ago

EGPN 181220Z 25021KT 9999 BKN030 08/04 Q1000
Observed
Feb-18 @ 12:20 UTC
Wind
  • 250° at 21 KTS
Visibility
10,000+ meters
Flight Rules
MVFR
Cloud Levels
  • Broken at 3,000' AGL
Temperature
C / 46°F
Dewpoint
C / 39°F
Humidity
76%
Altimeter
29.53" Hg
Pressure
999.92 hPa
Previous

55 mins ago

EGPN 181150Z 25019KT 9999 BKN030 08/04 Q1001
Observed
Feb-18 @ 11:50 UTC
Wind
  • 250° at 19 KTS
Visibility
10,000+ meters
Flight Rules
MVFR
Cloud Levels
  • Broken at 3,000' AGL
Temperature
C / 46°F
Dewpoint
C / 39°F
Humidity
76%
Altimeter
29.56" Hg
Pressure
1000.92 hPa
Previous

1 hour ago

EGPN 181120Z 25023KT 9999 SCT030 08/04 Q1001
Observed
Feb-18 @ 11:20 UTC
Wind
  • 250° at 23 KTS
Visibility
10,000+ meters
Flight Rules
VFR
Cloud Levels
  • Scattered at 3,000' AGL
Temperature
C / 46°F
Dewpoint
C / 39°F
Humidity
76%
Altimeter
29.56" Hg
Pressure
1000.92 hPa